createdAt,value
2023-12-27T00:01:42.742Z,71.63
2023-12-27T00:04:09.504Z,71.70
2023-12-27T00:06:36.449Z,72.01
2023-12-27T00:09:04.798Z,72.50
2023-12-27T00:11:31.235Z,71.83
2023-12-27T00:13:57.686Z,71.29
2023-12-27T00:16:24.275Z,71.74
2023-12-27T00:18:50.884Z,72.07
2023-12-27T00:21:17.637Z,72.02
2023-12-27T00:23:44.149Z,72.13
2023-12-27T00:26:12.089Z,71.67
2023-12-27T00:28:38.503Z,72.03
2023-12-27T00:31:05.331Z,72.15
2023-12-27T00:33:32.115Z,72.32
2023-12-27T00:35:58.616Z,72.33
2023-12-27T00:38:25.291Z,72.21
2023-12-27T00:40:51.709Z,72.23
2023-12-27T00:43:19.521Z,73.10
2023-12-27T00:45:46.127Z,72.65
2023-12-27T00:48:12.677Z,72.87
2023-12-27T00:50:39.157Z,72.92
2023-12-27T00:53:05.580Z,73.07
2023-12-27T00:55:32.041Z,73.16
2023-12-27T00:57:58.661Z,73.42
2023-12-27T01:00:26.642Z,73.31
2023-12-27T01:02:53.161Z,73.95
2023-12-27T01:05:19.700Z,73.56
2023-12-27T01:07:46.230Z,73.02
2023-12-27T01:10:12.650Z,72.89
2023-12-27T01:12:39.215Z,72.20
2023-12-27T01:15:06.823Z,72.90
2023-12-27T01:17:34.610Z,72.97
2023-12-27T01:20:01.216Z,72.76
2023-12-27T01:22:27.887Z,72.34
2023-12-27T01:24:54.367Z,73.69
2023-12-27T01:27:21.071Z,73.76
2023-12-27T01:29:47.615Z,73.27
2023-12-27T01:32:14.094Z,73.36
2023-12-27T01:34:42.067Z,73.81
2023-12-27T01:37:08.527Z,74.03
2023-12-27T01:39:35.427Z,74.39
2023-12-27T01:42:02.264Z,74.37
2023-12-27T01:44:28.747Z,74.34
2023-12-27T01:46:55.490Z,74.83
2023-12-27T01:49:22.280Z,75.29
2023-12-27T01:51:50.764Z,75.12
2023-12-27T01:54:17.369Z,74.91
2023-12-27T01:56:44.934Z,75.12
2023-12-27T01:59:11.686Z,74.85
2023-12-27T02:01:38.494Z,75.05
2023-12-27T02:04:05.258Z,75.21
2023-12-27T02:06:33.006Z,75.22
2023-12-27T02:09:01.067Z,75.20
2023-12-27T02:11:27.512Z,74.72
2023-12-27T02:13:53.965Z,74.83
2023-12-27T02:16:20.441Z,74.63
2023-12-27T02:18:48.386Z,74.64
2023-12-27T02:21:15.208Z,74.98
2023-12-27T02:23:43.213Z,74.89
2023-12-27T02:26:11.408Z,74.61
2023-12-27T02:28:37.804Z,74.59
2023-12-27T02:31:04.667Z,74.69
2023-12-27T02:33:31.809Z,75.02
2023-12-27T02:35:58.464Z,76.01
2023-12-27T02:38:24.919Z,75.25
2023-12-27T02:40:51.522Z,75.34
2023-12-27T02:43:19.344Z,75.13
2023-12-27T02:45:45.738Z,74.59
2023-12-27T02:48:12.342Z,74.94
2023-12-27T02:50:38.823Z,75.10
2023-12-27T02:53:05.289Z,74.95
2023-12-27T02:55:31.761Z,74.82
2023-12-27T02:57:58.442Z,74.25
2023-12-27T03:00:26.440Z,74.42
2023-12-27T03:02:52.909Z,74.25
2023-12-27T03:05:19.453Z,74.22
2023-12-27T03:07:45.914Z,74.42
2023-12-27T03:10:12.382Z,73.97
2023-12-27T03:12:38.866Z,73.72
2023-12-27T03:15:06.214Z,74.11
2023-12-27T03:17:34.333Z,74.39
2023-12-27T03:20:00.829Z,74.29
2023-12-27T03:22:27.302Z,74.31
2023-12-27T03:24:53.740Z,73.98
2023-12-27T03:27:20.225Z,73.78
2023-12-27T03:29:46.648Z,73.96
2023-12-27T03:32:13.174Z,74.18
2023-12-27T03:34:41.072Z,73.89
2023-12-27T03:37:07.560Z,73.93
2023-12-27T03:39:34.109Z,74.02
2023-12-27T03:42:00.722Z,74.03
2023-12-27T03:44:27.170Z,73.90
2023-12-27T03:46:53.641Z,73.63
2023-12-27T03:49:20.320Z,73.96
2023-12-27T03:51:48.357Z,73.56
2023-12-27T03:54:15.244Z,73.25
2023-12-27T03:56:44.351Z,73.13
2023-12-27T03:59:10.775Z,72.87
2023-12-27T04:01:37.242Z,72.54
2023-12-27T04:04:03.988Z,72.35
2023-12-27T04:06:30.842Z,72.58
2023-12-27T04:08:58.857Z,72.69
2023-12-27T04:11:25.346Z,72.60
2023-12-27T04:13:51.779Z,72.62
2023-12-27T04:16:18.419Z,72.61
2023-12-27T04:18:44.882Z,72.47
2023-12-27T04:21:11.522Z,72.43
2023-12-27T04:23:38.019Z,72.33
2023-12-27T04:26:06.457Z,71.99
2023-12-27T04:28:32.886Z,72.24
2023-12-27T04:30:59.534Z,71.69
2023-12-27T04:33:26.215Z,71.64
2023-12-27T04:35:52.706Z,71.46
2023-12-27T04:38:19.162Z,71.45
2023-12-27T04:40:45.603Z,71.33
2023-12-27T04:43:13.581Z,71.13
2023-12-27T04:45:40.098Z,71.33
2023-12-27T04:48:07.270Z,70.94
2023-12-27T04:50:33.754Z,70.85
2023-12-27T04:53:00.237Z,71.13
2023-12-27T04:55:26.636Z,70.62
2023-12-27T04:57:53.134Z,70.39
2023-12-27T05:00:21.050Z,70.39
2023-12-27T05:02:47.490Z,70.41
2023-12-27T05:05:14.097Z,70.43
2023-12-27T05:07:40.768Z,70.70
2023-12-27T05:10:08.268Z,70.08
2023-12-27T05:12:35.352Z,70.35
2023-12-27T05:15:02.229Z,70.44
2023-12-27T05:17:30.177Z,70.38
2023-12-27T05:19:56.648Z,70.36
2023-12-27T05:22:23.094Z,70.80
2023-12-27T05:24:49.559Z,70.84
2023-12-27T05:27:16.134Z,71.10
2023-12-27T05:29:42.577Z,70.96
2023-12-27T05:32:09.017Z,71.20
2023-12-27T05:34:38.153Z,71.39
2023-12-27T05:37:05.006Z,71.31
2023-12-27T05:39:31.675Z,71.81
2023-12-27T05:41:58.202Z,71.57
2023-12-27T05:44:24.690Z,71.13
2023-12-27T05:46:52.483Z,71.26
2023-12-27T05:49:19.010Z,71.01
2023-12-27T05:51:46.795Z,71.18
2023-12-27T05:54:13.369Z,71.20
2023-12-27T05:56:39.832Z,70.88
2023-12-27T05:59:06.272Z,71.38
2023-12-27T06:01:33.817Z,71.43
2023-12-27T06:04:00.693Z,71.24
2023-12-27T06:06:27.183Z,70.98
2023-12-27T06:08:55.052Z,70.50
2023-12-27T06:11:21.574Z,70.80
2023-12-27T06:13:48.557Z,70.59
2023-12-27T06:16:15.181Z,70.50
2023-12-27T06:18:41.700Z,70.24
2023-12-27T06:21:09.266Z,70.24
2023-12-27T06:23:35.711Z,71.11
2023-12-27T06:26:03.870Z,71.11
2023-12-27T06:28:30.768Z,71.13
2023-12-27T06:30:57.303Z,70.92
2023-12-27T06:33:23.978Z,70.71
2023-12-27T06:35:50.531Z,70.61
2023-12-27T06:38:16.921Z,70.86
2023-12-27T06:40:43.553Z,70.86
2023-12-27T06:43:11.437Z,70.75
2023-12-27T06:45:37.927Z,70.64
2023-12-27T06:48:05.497Z,70.46
2023-12-27T06:50:31.952Z,70.37
2023-12-27T06:52:58.540Z,71.29
2023-12-27T06:55:24.958Z,71.01
2023-12-27T06:57:51.448Z,70.80
2023-12-27T07:00:20.097Z,70.80
2023-12-27T07:02:46.584Z,70.66
2023-12-27T07:05:13.155Z,71.48
2023-12-27T07:07:39.809Z,71.04
2023-12-27T07:10:08.876Z,71.33
2023-12-27T07:12:36.569Z,71.17
2023-12-27T07:15:03.593Z,71.68
2023-12-27T07:17:31.454Z,71.75
2023-12-27T07:19:57.909Z,71.92
2023-12-27T07:22:24.381Z,72.33
2023-12-27T07:24:50.827Z,72.39
2023-12-27T07:27:17.284Z,73.30
2023-12-27T07:29:46.518Z,72.71
2023-12-27T07:32:12.992Z,73.72
2023-12-27T07:34:41.114Z,73.76
2023-12-27T07:37:07.636Z,73.44
2023-12-27T07:39:34.328Z,73.35
2023-12-27T07:42:01.035Z,74.08
2023-12-27T07:44:27.925Z,74.23
2023-12-27T07:46:54.545Z,74.56
2023-12-27T07:49:21.061Z,75.11
2023-12-27T07:51:49.220Z,75.92
2023-12-27T07:54:16.126Z,75.98
2023-12-27T07:56:42.638Z,75.94
2023-12-27T07:59:09.407Z,76.23
2023-12-27T08:01:35.936Z,76.20
2023-12-27T08:04:02.643Z,75.55
2023-12-27T08:06:29.616Z,75.42
2023-12-27T08:08:57.515Z,75.51
2023-12-27T08:11:24.212Z,75.80
2023-12-27T08:13:50.890Z,75.85
2023-12-27T08:16:17.477Z,76.46
2023-12-27T08:18:43.980Z,76.89
2023-12-27T08:21:10.761Z,77.42
2023-12-27T08:23:37.312Z,77.30
2023-12-27T08:26:05.707Z,77.97
2023-12-27T08:28:32.156Z,77.59
2023-12-27T08:30:58.738Z,78.02
2023-12-27T08:33:25.349Z,77.26
2023-12-27T08:35:51.992Z,76.71
2023-12-27T08:38:18.699Z,77.02
2023-12-27T08:40:45.235Z,76.48
2023-12-27T08:43:13.394Z,76.17
2023-12-27T08:45:40.060Z,76.35
2023-12-27T08:48:07.132Z,76.56
2023-12-27T08:50:33.682Z,76.63
2023-12-27T08:53:00.212Z,76.41
2023-12-27T08:55:26.891Z,77.48
2023-12-27T08:57:53.722Z,76.96
2023-12-27T09:00:21.754Z,76.50
2023-12-27T09:02:48.491Z,76.74
2023-12-27T09:05:15.204Z,76.59
2023-12-27T09:07:41.674Z,75.58
2023-12-27T09:10:08.360Z,75.44
2023-12-27T09:12:34.889Z,74.62
2023-12-27T09:15:01.558Z,74.67
2023-12-27T09:17:29.788Z,74.91
2023-12-27T09:19:56.344Z,74.24
2023-12-27T09:22:22.851Z,74.74
2023-12-27T09:24:49.422Z,73.40
2023-12-27T09:27:16.935Z,72.92
2023-12-27T09:29:43.482Z,72.50
2023-12-27T09:32:10.193Z,72.66
2023-12-27T09:34:38.153Z,73.42
2023-12-27T09:37:04.846Z,74.25
2023-12-27T09:39:31.531Z,73.97
2023-12-27T09:41:58.104Z,73.61
2023-12-27T09:44:25.458Z,73.42
2023-12-27T09:46:52.066Z,73.71
2023-12-27T09:49:21.529Z,74.12
2023-12-27T09:51:49.861Z,74.15
2023-12-27T09:54:16.676Z,73.13
2023-12-27T09:56:44.373Z,73.95
2023-12-27T09:59:17.514Z,74.51
2023-12-27T10:01:47.232Z,73.68
2023-12-27T10:04:26.427Z,73.53
2023-12-27T10:06:55.030Z,74.18
2023-12-27T10:09:22.374Z,73.23
2023-12-27T10:11:48.932Z,73.67
2023-12-27T10:14:17.189Z,74.33
2023-12-27T10:16:43.633Z,74.22
2023-12-27T10:19:40.261Z,74.13
2023-12-27T10:22:08.977Z,73.93
2023-12-27T10:24:35.934Z,73.50
2023-12-27T10:27:03.276Z,73.08
2023-12-27T10:29:31.110Z,74.63
2023-12-27T10:31:57.842Z,73.95
2023-12-27T10:34:24.588Z,73.08
2023-12-27T10:36:51.375Z,72.45
2023-12-27T10:39:19.576Z,72.71
2023-12-27T10:41:46.271Z,72.44
2023-12-27T10:44:13.098Z,71.94
2023-12-27T10:46:40.775Z,72.66
2023-12-27T10:49:07.419Z,71.17
2023-12-27T10:51:34.188Z,71.99
2023-12-27T10:54:01.666Z,70.92
2023-12-27T10:56:35.798Z,70.68
2023-12-27T10:59:02.785Z,70.13
2023-12-27T11:01:29.393Z,69.75
2023-12-27T11:03:56.744Z,69.58
2023-12-27T11:06:24.036Z,70.10
2023-12-27T11:08:52.680Z,70.23
2023-12-27T11:11:22.792Z,69.56
2023-12-27T11:13:51.611Z,70.22
2023-12-27T11:16:18.253Z,68.70
2023-12-27T11:18:46.729Z,69.16
2023-12-27T11:21:13.368Z,69.32
2023-12-27T11:23:41.024Z,68.56
2023-12-27T11:26:07.564Z,69.53
2023-12-27T11:28:34.231Z,69.18
2023-12-27T11:31:02.250Z,68.65
2023-12-27T11:33:32.480Z,68.57
2023-12-27T11:36:03.618Z,69.12
2023-12-27T11:38:31.400Z,68.19
2023-12-27T11:41:01.123Z,68.74
2023-12-27T11:43:27.945Z,68.34
2023-12-27T11:45:59.046Z,68.97
2023-12-27T11:48:27.813Z,68.66
2023-12-27T11:50:55.681Z,67.99
2023-12-27T11:53:22.504Z,68.02
2023-12-27T11:55:49.271Z,67.48
2023-12-27T11:58:16.000Z,67.58
2023-12-27T12:00:42.993Z,68.54
2023-12-27T12:03:19.077Z,68.56
2023-12-27T12:06:10.868Z,68.53
2023-12-27T12:08:42.793Z,67.63
2023-12-27T12:11:10.176Z,68.42
2023-12-27T12:13:38.256Z,68.23
2023-12-27T12:16:06.255Z,68.76
2023-12-27T12:18:34.146Z,67.74
2023-12-27T12:21:02.242Z,67.65
2023-12-27T12:23:29.877Z,67.42
2023-12-27T12:25:57.725Z,67.98
2023-12-27T12:28:24.151Z,67.37
2023-12-27T12:30:50.713Z,66.84
2023-12-27T12:33:17.447Z,66.37
2023-12-27T12:35:44.043Z,66.60
2023-12-27T12:38:12.710Z,66.76
2023-12-27T12:40:39.449Z,66.69
2023-12-27T12:43:06.007Z,66.83
2023-12-27T12:45:32.597Z,66.29
2023-12-27T12:47:59.347Z,67.00
2023-12-27T12:50:25.976Z,67.07
2023-12-27T12:52:52.517Z,66.75
2023-12-27T12:55:21.690Z,67.01
2023-12-27T12:57:48.429Z,67.40
2023-12-27T13:00:21.830Z,66.95
2023-12-27T13:02:48.761Z,66.39
2023-12-27T13:05:15.447Z,66.28
2023-12-27T13:07:42.261Z,66.96
2023-12-27T13:10:10.232Z,66.02
2023-12-27T13:12:40.343Z,66.21
2023-12-27T13:15:08.114Z,66.15
2023-12-27T13:17:34.720Z,65.02
2023-12-27T13:20:01.241Z,65.40
2023-12-27T13:22:27.769Z,65.02
2023-12-27T13:24:54.332Z,65.24
2023-12-27T13:27:20.919Z,64.23
2023-12-27T13:29:48.699Z,64.48
2023-12-27T13:32:15.105Z,64.24
2023-12-27T13:34:41.639Z,64.51
2023-12-27T13:37:08.353Z,64.19
2023-12-27T13:39:34.993Z,64.22
2023-12-27T13:42:01.840Z,63.75
2023-12-27T13:44:28.353Z,64.07
2023-12-27T13:46:56.564Z,63.59
2023-12-27T13:49:23.273Z,64.33
2023-12-27T13:51:49.828Z,64.26
2023-12-27T13:54:24.599Z,64.90
2023-12-27T13:56:55.545Z,64.45
2023-12-27T13:59:22.236Z,65.31
2023-12-27T14:01:49.277Z,65.72
2023-12-27T14:04:17.212Z,65.35
2023-12-27T14:06:43.738Z,65.53
2023-12-27T14:09:10.421Z,66.75
2023-12-27T14:11:37.062Z,66.59
2023-12-27T14:14:03.581Z,66.90
2023-12-27T14:16:30.410Z,67.38
2023-12-27T14:18:57.394Z,67.13
2023-12-27T14:21:25.823Z,66.91
2023-12-27T14:23:52.511Z,66.73
2023-12-27T14:26:19.072Z,66.82
2023-12-27T14:28:45.559Z,67.90
2023-12-27T14:31:15.425Z,67.06
2023-12-27T14:33:42.231Z,67.15
2023-12-27T14:36:09.299Z,67.63
2023-12-27T14:38:37.400Z,67.11
2023-12-27T14:41:03.998Z,67.92
2023-12-27T14:43:30.461Z,67.68
2023-12-27T14:45:57.551Z,67.46
2023-12-27T14:48:24.634Z,67.42
2023-12-27T14:50:51.188Z,67.14
2023-12-27T14:53:17.729Z,67.71
2023-12-27T14:55:45.685Z,67.53
2023-12-27T14:58:13.610Z,68.07
2023-12-27T15:00:41.762Z,68.46
2023-12-27T15:03:08.324Z,68.52
2023-12-27T15:05:34.827Z,67.75
2023-12-27T15:08:01.574Z,67.93
2023-12-27T15:10:29.079Z,67.89
2023-12-27T15:12:57.770Z,68.51
2023-12-27T15:15:24.654Z,68.58
2023-12-27T15:17:51.613Z,68.41
2023-12-27T15:20:19.364Z,68.38
2023-12-27T15:22:45.819Z,68.93
2023-12-27T15:25:12.930Z,69.47
2023-12-27T15:27:39.426Z,69.73
2023-12-27T15:30:08.896Z,69.44
2023-12-27T15:32:37.536Z,69.92
2023-12-27T15:35:05.219Z,69.18
2023-12-27T15:37:31.711Z,70.33
2023-12-27T15:39:58.411Z,70.23
2023-12-27T15:42:25.193Z,70.19
2023-12-27T15:44:51.976Z,69.52
2023-12-27T15:47:19.794Z,69.83
2023-12-27T15:49:46.561Z,70.01
2023-12-27T15:52:13.080Z,69.54
2023-12-27T15:54:39.828Z,70.14
2023-12-27T15:57:08.635Z,70.58
2023-12-27T15:59:35.121Z,70.37
2023-12-27T16:02:01.608Z,70.75
2023-12-27T16:04:29.680Z,70.93
2023-12-27T16:06:56.189Z,70.50
2023-12-27T16:09:22.750Z,71.40
2023-12-27T16:11:49.487Z,71.05
2023-12-27T16:14:16.334Z,71.77
2023-12-27T16:16:43.028Z,70.57
2023-12-27T16:19:10.347Z,70.47
2023-12-27T16:21:38.756Z,71.32
2023-12-27T16:24:06.058Z,71.97
2023-12-27T16:26:32.578Z,70.50
2023-12-27T16:28:59.311Z,70.51
2023-12-27T16:31:26.845Z,71.85
2023-12-27T16:33:53.564Z,70.75
2023-12-27T16:36:21.594Z,71.20
2023-12-27T16:38:49.509Z,71.54
2023-12-27T16:41:16.002Z,71.58
2023-12-27T16:43:44.292Z,71.27
2023-12-27T16:46:19.990Z,71.65
2023-12-27T16:48:49.107Z,71.84
2023-12-27T16:51:17.724Z,72.02
2023-12-27T16:53:44.309Z,71.62
2023-12-27T16:56:16.223Z,72.01
2023-12-27T16:58:42.948Z,71.83
2023-12-27T17:01:10.597Z,71.88
2023-12-27T17:03:39.386Z,72.24
2023-12-27T17:06:06.264Z,71.69
2023-12-27T17:08:32.731Z,71.39
2023-12-27T17:10:59.203Z,71.80
2023-12-27T17:13:27.046Z,70.85
2023-12-27T17:15:53.661Z,71.22
2023-12-27T17:18:20.236Z,71.66
2023-12-27T17:20:46.790Z,71.08
2023-12-27T17:23:13.418Z,72.09
2023-12-27T17:25:40.047Z,70.86
2023-12-27T17:28:06.744Z,71.83
2023-12-27T17:30:34.677Z,71.24
2023-12-27T17:33:01.760Z,71.38
2023-12-27T17:35:28.600Z,71.02
2023-12-27T17:37:55.261Z,71.36
2023-12-27T17:40:23.510Z,71.58
2023-12-27T17:42:50.920Z,70.98
2023-12-27T17:45:17.635Z,70.92
2023-12-27T17:47:45.656Z,70.56
2023-12-27T17:50:12.550Z,70.44
2023-12-27T17:52:39.068Z,70.48
2023-12-27T17:55:07.244Z,70.65
2023-12-27T17:57:38.081Z,70.23
2023-12-27T18:00:07.721Z,70.13
2023-12-27T18:02:34.364Z,70.02
2023-12-27T18:05:03.115Z,70.19
2023-12-27T18:07:31.121Z,70.22
2023-12-27T18:09:57.610Z,70.62
2023-12-27T18:12:24.214Z,69.72
2023-12-27T18:14:50.736Z,70.32
2023-12-27T18:17:18.144Z,69.53
2023-12-27T18:19:44.787Z,69.68
2023-12-27T18:22:12.726Z,69.93
2023-12-27T18:24:40.315Z,69.63
2023-12-27T18:27:07.763Z,69.75
2023-12-27T18:29:35.362Z,69.95
2023-12-27T18:32:02.799Z,69.45
2023-12-27T18:34:29.659Z,68.95
2023-12-27T18:36:56.805Z,68.89
2023-12-27T18:39:25.817Z,68.38
2023-12-27T18:41:54.142Z,67.72
2023-12-27T18:44:20.780Z,67.77
2023-12-27T18:46:47.357Z,67.31
2023-12-27T18:49:14.061Z,67.47
2023-12-27T18:51:41.021Z,67.71
2023-12-27T18:54:07.928Z,67.02
2023-12-27T18:56:35.746Z,66.35
2023-12-27T18:59:03.995Z,66.17
2023-12-27T19:01:30.617Z,65.88
2023-12-27T19:03:57.257Z,66.40
2023-12-27T19:06:23.818Z,65.54
2023-12-27T19:08:50.817Z,66.05
2023-12-27T19:11:18.080Z,66.05
2023-12-27T19:13:46.149Z,65.18
2023-12-27T19:16:12.658Z,65.48
2023-12-27T19:18:39.192Z,65.31
2023-12-27T19:21:06.133Z,64.09
2023-12-27T19:23:32.844Z,64.00
2023-12-27T19:25:59.389Z,63.32
2023-12-27T19:28:26.056Z,63.21
2023-12-27T19:30:53.987Z,62.60
2023-12-27T19:33:20.675Z,62.17
2023-12-27T19:35:47.244Z,62.51
2023-12-27T19:38:13.702Z,62.45
2023-12-27T19:40:40.256Z,62.14
2023-12-27T19:43:06.844Z,61.60
2023-12-27T19:45:33.378Z,60.36
2023-12-27T19:48:01.462Z,60.53
2023-12-27T19:50:28.249Z,61.24
2023-12-27T19:52:54.812Z,60.79
2023-12-27T19:55:23.577Z,61.00
2023-12-27T19:57:50.117Z,61.05
2023-12-27T20:00:17.354Z,60.67
2023-12-27T20:02:44.104Z,60.17
2023-12-27T20:05:13.532Z,60.23
2023-12-27T20:07:40.410Z,59.78
2023-12-27T20:10:08.396Z,59.98
2023-12-27T20:12:34.873Z,59.85
2023-12-27T20:15:01.458Z,60.25
2023-12-27T20:17:28.357Z,59.71
2023-12-27T20:19:55.026Z,59.54
2023-12-27T20:22:23.044Z,59.43
2023-12-27T20:24:49.687Z,59.71
2023-12-27T20:27:16.292Z,58.81
2023-12-27T20:29:43.057Z,58.90
2023-12-27T20:32:10.062Z,58.75
2023-12-27T20:34:36.802Z,58.78
2023-12-27T20:37:03.434Z,58.67
2023-12-27T20:39:31.338Z,58.27
2023-12-27T20:41:58.919Z,58.28
2023-12-27T20:44:26.000Z,58.12
2023-12-27T20:46:52.502Z,57.73
2023-12-27T20:49:19.096Z,57.37
2023-12-27T20:51:45.924Z,57.13
2023-12-27T20:54:12.715Z,57.04
2023-12-27T20:56:42.274Z,56.32
2023-12-27T20:59:09.158Z,56.83
2023-12-27T21:01:39.014Z,56.30
2023-12-27T21:04:05.712Z,56.35
2023-12-27T21:06:32.514Z,56.04
2023-12-27T21:08:59.522Z,55.58
2023-12-27T21:11:25.977Z,55.49
2023-12-27T21:13:54.587Z,55.68
2023-12-27T21:16:22.346Z,55.83
2023-12-27T21:18:49.130Z,55.46
2023-12-27T21:21:15.792Z,55.41
2023-12-27T21:23:42.320Z,55.74
2023-12-27T21:26:16.499Z,55.26
2023-12-27T21:28:43.800Z,55.30
2023-12-27T21:31:11.908Z,54.89
2023-12-27T21:33:38.689Z,54.75
2023-12-27T21:36:06.173Z,54.56
2023-12-27T21:38:32.831Z,54.39
2023-12-27T21:40:59.304Z,53.90
2023-12-27T21:43:25.979Z,53.28
2023-12-27T21:45:52.542Z,53.52
2023-12-27T21:48:20.752Z,53.21
2023-12-27T21:50:47.437Z,52.81
2023-12-27T21:53:13.922Z,53.04
2023-12-27T21:55:40.742Z,52.95
2023-12-27T21:58:07.288Z,51.89
2023-12-27T22:00:33.749Z,52.47
2023-12-27T22:03:00.271Z,52.62
2023-12-27T22:05:28.569Z,52.89
2023-12-27T22:08:02.092Z,54.09
2023-12-27T22:10:34.404Z,55.15
2023-12-27T22:13:00.965Z,56.15
2023-12-27T22:15:27.567Z,56.72
2023-12-27T22:17:54.041Z,56.28
2023-12-27T22:20:20.636Z,56.66
2023-12-27T22:22:48.550Z,59.22
2023-12-27T22:25:15.075Z,60.45
2023-12-27T22:27:41.937Z,61.69
2023-12-27T22:30:11.875Z,62.14
2023-12-27T22:32:38.438Z,61.25
2023-12-27T22:35:05.604Z,62.14
2023-12-27T22:37:32.839Z,63.10
2023-12-27T22:40:00.659Z,63.09
2023-12-27T22:42:27.124Z,62.88
2023-12-27T22:44:55.459Z,63.07
2023-12-27T22:47:22.705Z,62.63
2023-12-27T22:49:49.941Z,62.02
2023-12-27T22:52:16.457Z,62.69
2023-12-27T22:54:43.112Z,63.28
2023-12-27T22:57:11.057Z,63.78
2023-12-27T22:59:37.715Z,63.62
2023-12-27T23:02:04.916Z,64.44
2023-12-27T23:04:31.528Z,64.81
2023-12-27T23:06:58.370Z,64.98
2023-12-27T23:09:25.064Z,65.46
2023-12-27T23:11:51.897Z,65.72
2023-12-27T23:14:19.823Z,65.23
2023-12-27T23:16:46.302Z,64.91
2023-12-27T23:19:12.951Z,64.55
2023-12-27T23:21:40.794Z,64.15
2023-12-27T23:24:07.385Z,63.76
2023-12-27T23:26:34.704Z,64.34
2023-12-27T23:29:01.666Z,64.05
2023-12-27T23:31:29.733Z,64.17
2023-12-27T23:33:56.447Z,64.54
2023-12-27T23:36:23.030Z,64.17
2023-12-27T23:38:49.787Z,64.46
2023-12-27T23:41:16.301Z,65.40
2023-12-27T23:43:43.368Z,66.52
2023-12-27T23:46:10.312Z,66.67
2023-12-27T23:48:38.511Z,66.92
2023-12-27T23:51:05.375Z,68.19
2023-12-27T23:53:31.773Z,67.38
2023-12-27T23:55:58.364Z,67.90
2023-12-27T23:58:24.783Z,67.99
